createdAt,value
2022-09-22T00:01:23.949Z,8.53
2022-09-22T00:03:52.944Z,8.53
2022-09-22T00:06:24.449Z,8.51
2022-09-22T00:08:53.697Z,8.52
2022-09-22T00:11:28.361Z,8.53
2022-09-22T00:14:01.397Z,8.52
2022-09-22T00:16:34.349Z,8.52
2022-09-22T00:19:00.720Z,8.50
2022-09-22T00:21:27.924Z,8.47
2022-09-22T00:23:55.176Z,8.43
2022-09-22T00:26:23.277Z,8.41
2022-09-22T00:28:51.641Z,8.39
2022-09-22T00:31:24.375Z,8.38
2022-09-22T00:33:52.716Z,8.36
2022-09-22T00:36:21.671Z,8.35
2022-09-22T00:38:51.238Z,8.32
2022-09-22T00:41:21.226Z,8.29
2022-09-22T00:43:50.332Z,8.25
2022-09-22T00:46:22.568Z,8.21
2022-09-22T00:48:53.669Z,8.18
2022-09-22T00:51:25.079Z,8.13
2022-09-22T00:53:52.867Z,8.13
2022-09-22T00:56:36.644Z,8.10
2022-09-22T00:59:07.944Z,8.08
2022-09-22T01:01:36.789Z,8.07
2022-09-22T01:04:03.877Z,8.04
2022-09-22T01:06:30.932Z,8.03
2022-09-22T01:08:58.205Z,8.03
2022-09-22T01:11:26.211Z,8.04
2022-09-22T01:14:23.946Z,8.00
2022-09-22T01:16:56.275Z,7.98
2022-09-22T01:19:51.480Z,7.92
2022-09-22T01:22:55.687Z,7.84
2022-09-22T01:25:50.047Z,7.79
2022-09-22T01:28:22.333Z,7.75
2022-09-22T01:31:04.756Z,7.71
2022-09-22T01:34:02.020Z,7.65
2022-09-22T01:36:54.682Z,7.58
2022-09-22T01:40:10.532Z,7.61
2022-09-22T01:42:44.207Z,7.58
2022-09-22T01:45:17.824Z,7.56
2022-09-22T01:47:53.346Z,7.52
2022-09-22T01:50:51.325Z,7.51
2022-09-22T01:53:22.317Z,7.45
2022-09-22T01:55:55.115Z,7.43
2022-09-22T01:58:28.955Z,7.39
2022-09-22T02:01:02.448Z,7.32
2022-09-22T02:04:11.541Z,7.23
2022-09-22T02:06:48.832Z,7.13
2022-09-22T02:09:21.284Z,7.05
2022-09-22T02:11:48.877Z,6.97
2022-09-22T02:14:16.047Z,6.93
2022-09-22T02:16:42.464Z,6.91
2022-09-22T02:19:18.720Z,6.91
2022-09-22T02:21:47.811Z,6.90
2022-09-22T02:24:29.152Z,6.92
2022-09-22T02:26:57.798Z,6.92
2022-09-22T02:29:29.225Z,6.92
2022-09-22T02:31:56.631Z,6.92
2022-09-22T02:34:23.341Z,6.90
2022-09-22T02:37:03.354Z,6.85
2022-09-22T02:39:49.729Z,6.89
2022-09-22T02:42:39.799Z,6.89
2022-09-22T02:45:19.436Z,6.88
2022-09-22T02:47:52.083Z,6.90
2022-09-22T02:50:22.228Z,6.92
2022-09-22T02:52:52.820Z,6.93
2022-09-22T02:55:19.846Z,6.95
2022-09-22T02:57:46.221Z,6.94
2022-09-22T03:00:13.080Z,6.89
2022-09-22T03:02:39.547Z,6.85
2022-09-22T03:05:06.525Z,6.83
2022-09-22T03:07:32.932Z,6.82
2022-09-22T03:09:59.431Z,6.82
2022-09-22T03:12:25.845Z,6.82
2022-09-22T03:14:52.276Z,6.83
2022-09-22T03:17:18.657Z,6.81
2022-09-22T03:19:45.023Z,6.83
2022-09-22T03:22:11.392Z,6.73
2022-09-22T03:24:37.733Z,6.74
2022-09-22T03:27:04.158Z,6.71
2022-09-22T03:29:30.516Z,6.68
2022-09-22T03:31:56.836Z,6.63
2022-09-22T03:34:23.167Z,6.59
2022-09-22T03:36:49.979Z,6.52
2022-09-22T03:39:16.382Z,6.48
2022-09-22T03:41:42.747Z,6.43
2022-09-22T03:44:09.165Z,6.37
2022-09-22T03:46:35.524Z,6.34
2022-09-22T03:49:03.170Z,6.31
2022-09-22T03:51:30.000Z,6.26
2022-09-22T03:53:56.393Z,6.19
2022-09-22T03:56:22.734Z,6.17
2022-09-22T03:58:49.842Z,6.13
2022-09-22T04:01:16.332Z,6.11
2022-09-22T04:03:42.833Z,6.05
2022-09-22T04:06:09.674Z,6.05
2022-09-22T04:08:36.810Z,6.02
2022-09-22T04:11:04.228Z,5.98
2022-09-22T04:13:30.842Z,5.96
2022-09-22T04:15:57.196Z,5.93
2022-09-22T04:18:24.090Z,5.87
2022-09-22T04:20:51.296Z,5.80
2022-09-22T04:23:17.656Z,5.83
2022-09-22T04:25:44.144Z,5.83
2022-09-22T04:28:10.605Z,5.83
2022-09-22T04:30:37.461Z,5.82
2022-09-22T04:33:04.501Z,5.77
2022-09-22T04:35:30.998Z,5.73
2022-09-22T04:37:58.035Z,5.70
2022-09-22T04:40:25.212Z,5.66
2022-09-22T04:42:51.750Z,5.60
2022-09-22T04:45:18.178Z,5.56
2022-09-22T04:47:46.052Z,5.52
2022-09-22T04:50:12.890Z,5.47
2022-09-22T04:52:39.392Z,5.44
2022-09-22T04:55:06.379Z,5.38
2022-09-22T04:57:32.732Z,5.34
2022-09-22T04:59:59.090Z,5.32
2022-09-22T05:02:25.445Z,5.34
2022-09-22T05:04:51.797Z,5.35
2022-09-22T05:07:18.177Z,5.38
2022-09-22T05:09:44.593Z,5.42
2022-09-22T05:12:10.919Z,5.44
2022-09-22T05:14:37.324Z,5.46
2022-09-22T05:17:04.457Z,5.47
2022-09-22T05:19:30.794Z,5.47
2022-09-22T05:21:57.214Z,5.49
2022-09-22T05:24:23.636Z,5.52
2022-09-22T05:26:50.286Z,5.56
2022-09-22T05:29:18.186Z,5.58
2022-09-22T05:31:45.910Z,5.62
2022-09-22T05:34:13.059Z,5.64
2022-09-22T05:36:39.619Z,5.68
2022-09-22T05:39:06.081Z,5.70
2022-09-22T05:41:32.550Z,5.74
2022-09-22T05:43:58.887Z,5.76
2022-09-22T05:46:25.235Z,5.79
2022-09-22T05:48:51.574Z,5.83
2022-09-22T05:51:17.932Z,5.87
2022-09-22T05:53:44.358Z,5.88
2022-09-22T05:56:10.764Z,5.93
2022-09-22T05:58:37.181Z,5.97
2022-09-22T06:01:04.402Z,6.02
2022-09-22T06:03:30.979Z,6.06
2022-09-22T06:05:57.644Z,6.11
2022-09-22T06:08:24.027Z,6.12
2022-09-22T06:10:51.221Z,6.24
2022-09-22T06:13:17.652Z,6.35
2022-09-22T06:15:46.456Z,6.45
2022-09-22T06:18:15.361Z,6.57
2022-09-22T06:20:42.355Z,6.70
2022-09-22T06:23:08.948Z,6.82
2022-09-22T06:25:35.313Z,6.91
2022-09-22T06:28:06.620Z,7.11
2022-09-22T06:30:35.168Z,7.27
2022-09-22T06:33:01.794Z,7.40
2022-09-22T06:35:37.585Z,7.53
2022-09-22T06:38:13.787Z,7.67
2022-09-22T06:40:40.268Z,7.79
2022-09-22T06:43:11.993Z,7.88
2022-09-22T06:45:39.800Z,7.95
2022-09-22T06:48:10.105Z,8.07
2022-09-22T06:50:37.588Z,8.13
2022-09-22T06:53:07.148Z,8.21
2022-09-22T06:55:34.096Z,8.29
2022-09-22T06:58:02.715Z,8.37
2022-09-22T07:00:34.287Z,8.42
2022-09-22T07:03:22.470Z,8.52
2022-09-22T07:06:00.910Z,8.55
2022-09-22T07:08:29.389Z,8.70
2022-09-22T07:10:58.267Z,8.77
2022-09-22T07:13:26.131Z,8.87
2022-09-22T07:15:52.559Z,8.96
2022-09-22T07:18:18.981Z,9.05
2022-09-22T07:20:45.719Z,9.13
2022-09-22T07:23:18.370Z,9.19
2022-09-22T07:25:56.169Z,9.29
2022-09-22T07:28:28.301Z,9.37
2022-09-22T07:30:58.448Z,9.41
2022-09-22T07:33:25.950Z,9.48
2022-09-22T07:36:01.831Z,9.52
2022-09-22T07:38:34.016Z,9.60
2022-09-22T07:41:01.242Z,9.65
2022-09-22T07:43:28.492Z,9.72
2022-09-22T07:45:57.146Z,9.81
2022-09-22T07:48:37.502Z,9.86
2022-09-22T07:51:14.236Z,10.03
2022-09-22T07:53:42.775Z,10.15
2022-09-22T07:56:12.354Z,10.22
2022-09-22T07:58:51.043Z,10.34
2022-09-22T08:01:19.389Z,10.39
2022-09-22T08:03:47.286Z,10.45
2022-09-22T08:06:16.079Z,10.53
2022-09-22T08:08:48.302Z,10.60
2022-09-22T08:11:17.793Z,10.63
2022-09-22T08:13:56.043Z,10.71
2022-09-22T08:16:24.377Z,10.74
2022-09-22T08:18:54.755Z,10.73
2022-09-22T08:21:21.441Z,10.78
2022-09-22T08:23:49.912Z,10.90
2022-09-22T08:26:16.254Z,11.03
2022-09-22T08:28:42.586Z,11.11
2022-09-22T08:31:13.213Z,11.23
2022-09-22T08:33:40.683Z,11.32
2022-09-22T08:36:07.270Z,11.39
2022-09-22T08:38:34.332Z,11.44
2022-09-22T08:41:13.069Z,11.53
2022-09-22T08:43:50.237Z,11.62
2022-09-22T08:46:16.637Z,11.71
2022-09-22T08:49:06.543Z,11.73
2022-09-22T08:51:52.214Z,11.80
2022-09-22T08:54:27.116Z,11.87
2022-09-22T08:57:28.628Z,12.01
2022-09-22T09:00:12.935Z,12.16
2022-09-22T09:02:48.523Z,12.27
2022-09-22T09:05:39.650Z,12.37
2022-09-22T09:08:25.909Z,12.40
2022-09-22T09:11:09.634Z,12.49
2022-09-22T09:14:17.521Z,12.64
2022-09-22T09:16:53.864Z,12.79
2022-09-22T09:19:32.331Z,12.87
2022-09-22T09:22:11.960Z,12.89
2022-09-22T09:27:39.654Z,13.08
2022-09-22T09:30:14.776Z,13.26
2022-09-22T09:32:54.404Z,13.39
2022-09-22T09:35:26.388Z,13.49
2022-09-22T09:37:58.733Z,13.59
2022-09-22T09:40:25.546Z,13.78
2022-09-22T09:43:04.028Z,13.87
2022-09-22T09:45:53.186Z,14.05
2022-09-22T09:48:46.959Z,14.20
2022-09-22T09:51:14.188Z,14.39
2022-09-22T09:53:46.316Z,14.47
2022-09-22T09:56:27.319Z,14.55
2022-09-22T09:59:21.445Z,14.70
2022-09-22T10:01:50.745Z,14.87
2022-09-22T10:04:19.184Z,15.02
2022-09-22T10:06:46.673Z,15.11
2022-09-22T10:09:24.194Z,15.19
2022-09-22T10:12:03.587Z,15.22
2022-09-22T10:14:33.050Z,15.39
2022-09-22T10:17:00.001Z,15.38
2022-09-22T10:19:30.197Z,15.35
2022-09-22T10:22:16.271Z,15.32
2022-09-22T10:24:53.508Z,15.43
2022-09-22T10:27:21.873Z,15.51
2022-09-22T10:29:51.115Z,15.65
2022-09-22T10:32:17.504Z,15.78
2022-09-22T10:34:51.426Z,15.88
2022-09-22T10:37:24.743Z,16.04
2022-09-22T10:39:53.021Z,16.20
2022-09-22T10:42:32.486Z,16.40
2022-09-22T10:45:19.349Z,16.52
2022-09-22T10:47:58.161Z,16.61
2022-09-22T10:50:58.557Z,16.66
2022-09-22T10:53:27.300Z,16.74
2022-09-22T10:56:13.926Z,16.81
2022-09-22T10:59:10.520Z,16.97
2022-09-22T11:01:57.145Z,17.05
2022-09-22T11:04:40.036Z,17.15
2022-09-22T11:07:46.726Z,17.26
2022-09-22T11:10:50.525Z,17.35
2022-09-22T11:13:43.402Z,17.45
2022-09-22T11:16:27.804Z,17.54
2022-09-22T11:19:13.157Z,17.70
2022-09-22T11:22:00.302Z,17.89
2022-09-22T11:24:46.637Z,18.06
2022-09-22T11:27:24.780Z,18.21
2022-09-22T11:30:22.835Z,18.23
2022-09-22T11:33:24.957Z,18.26
2022-09-22T11:36:15.206Z,18.32
2022-09-22T11:39:13.699Z,18.34
2022-09-22T11:41:47.783Z,18.39
2022-09-22T11:44:29.968Z,18.51
2022-09-22T11:47:20.803Z,18.65
2022-09-22T11:50:18.123Z,18.84
2022-09-22T11:53:03.441Z,18.90
2022-09-22T11:55:43.636Z,18.88
2022-09-22T11:58:15.640Z,18.86
2022-09-22T12:00:53.249Z,18.84
2022-09-22T12:03:26.585Z,18.85
2022-09-22T12:06:05.581Z,19.01
2022-09-22T12:08:37.779Z,19.10
2022-09-22T12:11:06.983Z,19.09
2022-09-22T12:13:34.850Z,19.15
2022-09-22T12:16:41.564Z,19.12
2022-09-22T12:19:31.878Z,19.23
2022-09-22T12:22:27.654Z,19.00
2022-09-22T12:24:53.981Z,18.97
2022-09-22T12:27:26.110Z,19.05
2022-09-22T12:30:02.554Z,19.15
2022-09-22T12:32:50.218Z,19.23
2022-09-22T12:35:30.991Z,19.52
2022-09-22T12:38:01.718Z,19.75
2022-09-22T12:40:35.604Z,19.97
2022-09-22T12:43:02.207Z,20.11
2022-09-22T12:45:38.100Z,20.01
2022-09-22T12:48:13.823Z,20.14
2022-09-22T12:50:42.353Z,19.88
2022-09-22T12:53:20.846Z,19.28
2022-09-22T12:55:48.618Z,19.26
2022-09-22T12:58:21.322Z,19.34
2022-09-22T13:00:50.399Z,19.50
2022-09-22T13:03:37.157Z,19.72
2022-09-22T13:06:23.523Z,19.78
2022-09-22T13:08:52.869Z,19.88
2022-09-22T13:11:20.448Z,20.06
2022-09-22T13:13:48.645Z,20.29
2022-09-22T13:16:15.006Z,20.32
2022-09-22T13:18:50.890Z,20.23
2022-09-22T13:21:18.795Z,20.27
2022-09-22T13:23:54.357Z,20.30
2022-09-22T13:26:35.829Z,20.36
2022-09-22T13:29:22.064Z,20.45
2022-09-22T13:31:52.895Z,20.43
2022-09-22T13:34:30.997Z,20.44
2022-09-22T13:37:02.858Z,20.54
2022-09-22T13:39:35.341Z,20.68
2022-09-22T13:42:31.358Z,20.77
2022-09-22T13:45:03.757Z,20.83
2022-09-22T13:47:30.602Z,20.82
2022-09-22T13:50:03.701Z,21.01
2022-09-22T13:52:32.709Z,21.01
2022-09-22T13:55:14.842Z,21.03
2022-09-22T13:57:41.862Z,21.06
2022-09-22T14:00:17.447Z,21.05
2022-09-22T14:02:45.251Z,20.94
2022-09-22T14:05:21.029Z,20.88
2022-09-22T14:08:07.809Z,20.84
2022-09-22T14:10:34.400Z,20.44
2022-09-22T14:13:00.892Z,20.46
2022-09-22T14:15:39.302Z,20.51
2022-09-22T14:18:15.745Z,20.51
2022-09-22T14:20:44.344Z,20.51
2022-09-22T14:23:26.426Z,20.61
2022-09-22T14:25:52.831Z,20.67
2022-09-22T14:28:29.609Z,20.72
2022-09-22T14:30:56.173Z,20.59
2022-09-22T14:33:25.432Z,20.65
2022-09-22T14:36:00.736Z,20.67
2022-09-22T14:38:29.999Z,20.67
2022-09-22T14:41:02.987Z,20.65
2022-09-22T14:43:41.953Z,20.66
2022-09-22T14:46:28.379Z,20.68
2022-09-22T14:48:55.245Z,20.72
2022-09-22T14:51:24.701Z,20.82
2022-09-22T14:54:01.712Z,20.95
2022-09-22T14:56:32.747Z,21.03
2022-09-22T14:59:00.829Z,21.16
2022-09-22T15:01:50.891Z,21.39
2022-09-22T15:04:24.892Z,21.61
2022-09-22T15:06:56.208Z,21.64
2022-09-22T15:09:26.802Z,21.65
2022-09-22T15:12:00.155Z,21.66
2022-09-22T15:14:41.534Z,21.64
2022-09-22T15:17:59.296Z,21.69
2022-09-22T15:20:36.665Z,21.86
2022-09-22T15:23:03.295Z,21.95
2022-09-22T15:25:29.716Z,21.96
2022-09-22T15:27:56.108Z,22.36
2022-09-22T15:30:22.650Z,22.91
2022-09-22T15:32:49.523Z,23.57
2022-09-22T15:35:17.619Z,24.36
2022-09-22T15:37:49.966Z,25.83
2022-09-22T15:40:21.541Z,28.67
2022-09-22T15:43:11.159Z,31.11
2022-09-22T15:45:37.180Z,32.21
2022-09-22T15:48:03.772Z,32.87
2022-09-22T15:50:30.645Z,33.69
2022-09-22T15:52:57.045Z,34.25
2022-09-22T15:55:24.285Z,34.43
2022-09-22T15:57:54.718Z,34.30
2022-09-22T16:00:27.440Z,33.73
2022-09-22T16:02:54.604Z,32.29
2022-09-22T16:05:21.185Z,30.21
2022-09-22T16:07:52.672Z,28.18
2022-09-22T16:10:25.811Z,26.76
2022-09-22T16:12:52.177Z,25.75
2022-09-22T16:15:18.594Z,24.94
2022-09-22T16:17:46.424Z,24.25
2022-09-22T16:20:16.877Z,23.80
2022-09-22T16:22:45.287Z,23.55
2022-09-22T16:25:12.495Z,23.26
2022-09-22T16:27:38.913Z,23.13
2022-09-22T16:30:05.968Z,23.24
2022-09-22T16:32:36.123Z,23.83
2022-09-22T16:35:03.639Z,25.73
2022-09-22T16:37:30.082Z,27.64
2022-09-22T16:39:56.415Z,28.70
2022-09-22T16:42:23.850Z,28.99
2022-09-22T16:44:50.468Z,29.29
2022-09-22T16:47:22.874Z,29.21
2022-09-22T16:49:51.164Z,29.06
2022-09-22T16:52:19.943Z,28.89
2022-09-22T16:54:46.464Z,28.65
2022-09-22T16:57:12.829Z,27.94
2022-09-22T16:59:39.159Z,27.26
2022-09-22T17:02:05.714Z,26.55
2022-09-22T17:04:32.389Z,25.00
2022-09-22T17:06:58.833Z,23.09
2022-09-22T17:09:25.285Z,21.58
2022-09-22T17:11:52.858Z,20.39
2022-09-22T17:14:24.310Z,19.43
2022-09-22T17:16:53.512Z,18.66
2022-09-22T17:19:23.133Z,17.99
2022-09-22T17:21:51.859Z,17.36
2022-09-22T17:24:19.235Z,16.77
2022-09-22T17:26:50.880Z,16.32
2022-09-22T17:29:24.857Z,15.97
2022-09-22T17:31:56.395Z,15.63
2022-09-22T17:34:24.620Z,15.37
2022-09-22T17:36:52.387Z,15.13
2022-09-22T17:39:18.736Z,14.92
2022-09-22T17:41:48.065Z,14.73
2022-09-22T17:44:19.545Z,14.54
2022-09-22T17:47:24.219Z,14.31
2022-09-22T17:50:08.973Z,14.14
2022-09-22T17:52:53.806Z,14.00
2022-09-22T17:55:22.433Z,13.88
2022-09-22T17:57:50.337Z,13.77
2022-09-22T18:00:20.977Z,13.68
2022-09-22T18:02:49.410Z,13.58
2022-09-22T18:05:17.940Z,13.46
2022-09-22T18:07:44.532Z,13.44
2022-09-22T18:10:16.698Z,13.39
2022-09-22T18:12:44.136Z,13.32
2022-09-22T18:15:13.197Z,13.25
2022-09-22T18:17:41.970Z,13.16
2022-09-22T18:20:14.648Z,13.16
2022-09-22T18:22:42.428Z,13.08
2022-09-22T18:25:10.259Z,12.99
2022-09-22T18:27:38.002Z,12.94
2022-09-22T18:30:05.083Z,12.90
2022-09-22T18:32:31.932Z,12.88
2022-09-22T18:34:58.313Z,12.83
2022-09-22T18:37:25.374Z,12.78
2022-09-22T18:39:51.716Z,12.72
2022-09-22T18:42:19.369Z,12.72
2022-09-22T18:44:47.098Z,12.68
2022-09-22T18:47:16.199Z,12.65
2022-09-22T18:49:43.010Z,12.63
2022-09-22T18:52:10.065Z,12.58
2022-09-22T18:54:39.507Z,12.52
2022-09-22T18:57:06.906Z,12.49
2022-09-22T18:59:33.508Z,12.39
2022-09-22T19:01:59.948Z,12.39
2022-09-22T19:04:26.837Z,12.35
2022-09-22T19:07:13.889Z,12.32
2022-09-22T19:09:40.642Z,12.26
2022-09-22T19:12:09.190Z,12.20
2022-09-22T19:14:38.995Z,12.15
2022-09-22T19:17:07.195Z,12.08
2022-09-22T19:19:36.919Z,12.02
2022-09-22T19:22:08.856Z,12.00
2022-09-22T19:24:36.934Z,11.96
2022-09-22T19:27:04.757Z,11.94
2022-09-22T19:29:32.390Z,11.91
2022-09-22T19:32:00.141Z,11.86
2022-09-22T19:34:27.340Z,11.82
2022-09-22T19:36:55.457Z,11.80
2022-09-22T19:39:22.934Z,11.76
2022-09-22T19:41:50.471Z,11.72
2022-09-22T19:44:20.032Z,11.67
2022-09-22T19:46:47.675Z,11.63
2022-09-22T19:49:15.026Z,11.60
2022-09-22T19:51:42.449Z,11.55
2022-09-22T19:54:09.560Z,11.52
2022-09-22T19:56:35.974Z,11.48
2022-09-22T19:59:03.123Z,11.46
2022-09-22T20:01:35.903Z,11.47
2022-09-22T20:04:03.270Z,11.41
2022-09-22T20:06:29.914Z,11.42
2022-09-22T20:09:02.658Z,11.37
2022-09-22T20:11:49.649Z,11.34
2022-09-22T20:14:22.448Z,11.28
2022-09-22T20:16:56.916Z,11.17
2022-09-22T20:19:25.629Z,11.20
2022-09-22T20:21:54.444Z,11.17
2022-09-22T20:24:22.786Z,11.14
2022-09-22T20:26:49.885Z,11.10
2022-09-22T20:29:17.323Z,11.11
2022-09-22T20:31:43.845Z,11.07
2022-09-22T20:34:15.023Z,11.09
2022-09-22T20:36:43.279Z,11.08
2022-09-22T20:39:14.854Z,11.05
2022-09-22T20:41:42.087Z,11.03
2022-09-22T20:44:14.551Z,11.02
2022-09-22T20:46:42.132Z,11.00
2022-09-22T20:49:12.235Z,10.97
2022-09-22T20:51:38.751Z,10.97
2022-09-22T20:54:05.571Z,10.96
2022-09-22T20:56:34.053Z,10.94
2022-09-22T20:59:01.967Z,10.90
2022-09-22T21:01:28.413Z,10.75
2022-09-22T21:03:55.353Z,10.84
2022-09-22T21:06:22.517Z,10.78
2022-09-22T21:09:07.233Z,10.76
2022-09-22T21:11:33.739Z,10.72
2022-09-22T21:14:03.771Z,10.66
2022-09-22T21:16:30.591Z,10.55
2022-09-22T21:18:57.218Z,10.46
2022-09-22T21:21:23.740Z,10.40
2022-09-22T21:23:50.087Z,10.33
2022-09-22T21:26:18.457Z,10.30
2022-09-22T21:28:46.106Z,10.27
2022-09-22T21:31:14.604Z,10.24
2022-09-22T21:33:41.814Z,10.22
2022-09-22T21:36:13.601Z,10.20
2022-09-22T21:38:41.942Z,10.19
2022-09-22T21:41:11.508Z,10.20
2022-09-22T21:43:38.609Z,10.20
2022-09-22T21:46:08.258Z,10.21
2022-09-22T21:48:38.310Z,10.21
2022-09-22T21:51:10.771Z,10.19
2022-09-22T21:53:39.387Z,10.14
2022-09-22T21:56:08.620Z,10.05
2022-09-22T21:58:36.903Z,9.99
2022-09-22T22:01:08.089Z,9.93
2022-09-22T22:03:35.404Z,9.89
2022-09-22T22:06:18.371Z,9.88
2022-09-22T22:08:49.175Z,9.85
2022-09-22T22:11:22.589Z,9.81
2022-09-22T22:13:52.148Z,9.78
2022-09-22T22:16:21.441Z,9.76
2022-09-22T22:18:48.160Z,9.70
2022-09-22T22:21:20.335Z,9.60
2022-09-22T22:23:48.367Z,9.44
2022-09-22T22:26:19.811Z,9.25
2022-09-22T22:28:47.946Z,9.21
2022-09-22T22:31:16.785Z,9.16
2022-09-22T22:33:43.969Z,9.14
2022-09-22T22:36:13.924Z,9.10
2022-09-22T22:38:41.393Z,9.07
2022-09-22T22:41:13.200Z,9.04
2022-09-22T22:43:40.340Z,9.02
2022-09-22T22:46:08.105Z,9.02
2022-09-22T22:48:36.053Z,8.93
2022-09-22T22:51:12.167Z,8.83
2022-09-22T22:53:38.811Z,8.77
2022-09-22T22:56:07.760Z,8.71
2022-09-22T22:58:36.111Z,8.66
2022-09-22T23:01:12.011Z,8.60
2022-09-22T23:03:41.178Z,8.52
2022-09-22T23:06:13.531Z,8.49
2022-09-22T23:08:41.103Z,8.48
2022-09-22T23:11:11.348Z,8.44
2022-09-22T23:13:40.415Z,8.50
2022-09-22T23:16:09.442Z,8.49
2022-09-22T23:18:38.041Z,8.54
2022-09-22T23:21:06.292Z,8.54
2022-09-22T23:23:33.908Z,8.56
2022-09-22T23:26:01.977Z,8.55
2022-09-22T23:28:31.162Z,8.54
2022-09-22T23:31:03.490Z,8.51
2022-09-22T23:33:30.719Z,8.48
2022-09-22T23:35:59.100Z,8.44
2022-09-22T23:38:27.332Z,8.39
2022-09-22T23:40:55.058Z,8.36
2022-09-22T23:43:22.388Z,8.32
2022-09-22T23:45:49.258Z,8.32
2022-09-22T23:48:16.544Z,8.22
2022-09-22T23:50:47.510Z,8.14
2022-09-22T23:53:15.499Z,8.07
2022-09-22T23:55:42.323Z,8.01
2022-09-22T23:58:09.287Z,8.00
